createdAt,value
2022-11-20T00:01:18.384Z,124.83
2022-11-20T00:03:45.634Z,125.43
2022-11-20T00:06:14.672Z,113.10
2022-11-20T00:08:41.881Z,183.30
2022-11-20T00:11:15.459Z,142.17
2022-11-20T00:13:43.133Z,94.67
2022-11-20T00:16:11.900Z,134.07
2022-11-20T00:18:38.414Z,41.57
2022-11-20T00:21:07.223Z,24.00
2022-11-20T00:23:34.258Z,20.80
2022-11-20T00:26:07.807Z,54.97
2022-11-20T00:28:34.384Z,43.00
2022-11-20T00:31:02.962Z,28.10
2022-11-20T00:33:30.003Z,35.90
2022-11-20T00:36:07.748Z,33.40
2022-11-20T00:38:35.009Z,24.93
2022-11-20T00:41:05.663Z,20.13
2022-11-20T00:43:32.112Z,19.50
2022-11-20T00:45:59.338Z,24.73
2022-11-20T00:48:26.434Z,19.77
2022-11-20T00:50:53.820Z,17.63
2022-11-20T00:53:20.820Z,18.60
2022-11-20T00:56:02.707Z,17.80
2022-11-20T00:58:37.419Z,18.63
2022-11-20T01:01:25.624Z,16.10
2022-11-20T01:03:54.256Z,16.47
2022-11-20T01:06:23.519Z,18.60
2022-11-20T01:08:53.266Z,19.97
2022-11-20T01:11:22.753Z,17.37
2022-11-20T01:13:50.807Z,16.57
2022-11-20T01:16:32.559Z,16.30
2022-11-20T01:19:01.223Z,15.93
2022-11-20T01:21:33.551Z,17.13
2022-11-20T01:24:01.028Z,16.73
2022-11-20T01:26:31.107Z,17.43
2022-11-20T01:28:58.328Z,17.37
2022-11-20T01:31:31.238Z,18.07
2022-11-20T01:34:00.465Z,19.97
2022-11-20T01:36:29.169Z,17.33
2022-11-20T01:38:58.457Z,17.47
2022-11-20T01:41:44.838Z,19.70
2022-11-20T01:44:15.909Z,16.20
2022-11-20T01:47:04.646Z,14.93
2022-11-20T01:49:47.604Z,16.17
2022-11-20T01:52:23.998Z,16.43
2022-11-20T01:55:15.644Z,16.93
2022-11-20T01:57:42.724Z,15.67
2022-11-20T02:00:14.941Z,17.13
2022-11-20T02:02:49.032Z,18.23
2022-11-20T02:05:29.396Z,17.40
2022-11-20T02:07:58.473Z,16.67
2022-11-20T02:10:25.803Z,16.33
2022-11-20T02:13:11.322Z,17.53
2022-11-20T02:15:38.239Z,16.30
2022-11-20T02:18:06.545Z,16.47
2022-11-20T02:20:33.486Z,17.10
2022-11-20T02:23:13.128Z,14.47
2022-11-20T02:25:42.040Z,19.50
2022-11-20T02:28:08.593Z,16.63
2022-11-20T02:30:35.055Z,18.37
2022-11-20T02:33:01.536Z,16.47
2022-11-20T02:35:27.944Z,19.63
2022-11-20T02:37:56.849Z,15.53
2022-11-20T02:40:24.076Z,16.40
2022-11-20T02:42:54.580Z,16.57
2022-11-20T02:45:21.380Z,17.77
2022-11-20T02:47:47.851Z,17.20
2022-11-20T02:50:14.382Z,18.80
2022-11-20T02:52:40.880Z,17.23
2022-11-20T02:55:07.766Z,17.30
2022-11-20T02:57:34.611Z,17.20
2022-11-20T03:00:01.323Z,16.43
2022-11-20T03:02:31.455Z,18.43
2022-11-20T03:04:58.129Z,18.07
2022-11-20T03:07:25.086Z,18.00
2022-11-20T03:09:52.176Z,19.20
2022-11-20T03:12:19.099Z,17.50
2022-11-20T03:14:50.175Z,21.17
2022-11-20T03:17:19.267Z,19.03
2022-11-20T03:19:45.751Z,18.77
2022-11-20T03:22:12.256Z,18.10
2022-11-20T03:24:38.734Z,19.47
2022-11-20T03:27:05.199Z,16.47
2022-11-20T03:29:31.680Z,17.50
2022-11-20T03:31:58.218Z,19.33
2022-11-20T03:34:25.035Z,16.30
2022-11-20T03:36:51.554Z,15.10
2022-11-20T03:39:18.194Z,16.80
2022-11-20T03:41:44.804Z,16.27
2022-11-20T03:44:12.545Z,14.30
2022-11-20T03:46:39.485Z,16.03
2022-11-20T03:49:06.553Z,13.83
2022-11-20T03:51:35.145Z,16.87
2022-11-20T03:54:07.847Z,14.93
2022-11-20T03:56:36.988Z,14.83
2022-11-20T03:59:03.967Z,16.63
2022-11-20T04:01:33.829Z,15.30
2022-11-20T04:04:00.444Z,17.07
2022-11-20T04:06:29.468Z,16.00
2022-11-20T04:08:57.027Z,13.37
2022-11-20T04:11:32.059Z,16.80
2022-11-20T04:14:04.047Z,15.30
2022-11-20T04:16:32.201Z,15.37
2022-11-20T04:19:01.270Z,16.03
2022-11-20T04:21:28.113Z,15.20
2022-11-20T04:23:55.171Z,14.23
2022-11-20T04:26:24.226Z,13.47
2022-11-20T04:28:50.932Z,13.50
2022-11-20T04:31:19.764Z,13.77
2022-11-20T04:33:46.608Z,14.67
2022-11-20T04:36:16.401Z,14.77
2022-11-20T04:38:43.784Z,16.57
2022-11-20T04:41:18.949Z,17.30
2022-11-20T04:43:50.561Z,16.60
2022-11-20T04:46:18.506Z,14.13
2022-11-20T04:48:45.521Z,15.57
2022-11-20T04:51:12.732Z,13.80
2022-11-20T04:53:42.948Z,13.97
2022-11-20T04:56:11.548Z,14.47
2022-11-20T04:58:39.474Z,12.97
2022-11-20T05:01:15.016Z,15.70
2022-11-20T05:03:42.930Z,14.27
2022-11-20T05:06:11.808Z,12.80
2022-11-20T05:08:38.424Z,13.77
2022-11-20T05:11:10.120Z,15.73
2022-11-20T05:13:37.078Z,13.43
2022-11-20T05:16:13.333Z,12.53
2022-11-20T05:18:41.270Z,14.87
2022-11-20T05:21:09.250Z,12.03
2022-11-20T05:23:36.756Z,12.03
2022-11-20T05:26:04.062Z,15.10
2022-11-20T05:28:31.546Z,12.77
2022-11-20T05:31:05.819Z,12.70
2022-11-20T05:33:32.588Z,14.83
2022-11-20T05:35:59.517Z,14.63
2022-11-20T05:38:25.991Z,12.07
2022-11-20T05:40:52.763Z,13.43
2022-11-20T05:43:19.400Z,14.27
2022-11-20T05:45:55.786Z,13.13
2022-11-20T05:48:22.521Z,14.07
2022-11-20T05:50:49.440Z,14.00
2022-11-20T05:53:15.906Z,13.80
2022-11-20T05:55:42.424Z,14.67
2022-11-20T05:58:08.943Z,12.73
2022-11-20T06:00:36.331Z,12.73
2022-11-20T06:03:03.657Z,15.00
2022-11-20T06:05:30.169Z,15.10
2022-11-20T06:07:56.914Z,14.33
2022-11-20T06:10:23.366Z,14.07
2022-11-20T06:12:49.815Z,14.00
2022-11-20T06:15:16.319Z,14.00
2022-11-20T06:17:42.783Z,12.30
2022-11-20T06:20:09.933Z,14.97
2022-11-20T06:22:36.459Z,17.10
2022-11-20T06:25:02.981Z,13.63
2022-11-20T06:27:29.608Z,14.03
2022-11-20T06:29:56.033Z,12.00
2022-11-20T06:32:22.777Z,14.40
2022-11-20T06:34:49.448Z,15.50
2022-11-20T06:37:15.919Z,13.77
2022-11-20T06:39:42.328Z,14.00
2022-11-20T06:42:08.776Z,13.20
2022-11-20T06:44:35.223Z,17.80
2022-11-20T06:47:02.595Z,15.17
2022-11-20T06:49:29.432Z,14.73
2022-11-20T06:51:55.971Z,13.50
2022-11-20T06:54:22.724Z,15.40
2022-11-20T06:56:49.636Z,12.40
2022-11-20T06:59:16.089Z,12.77
2022-11-20T07:01:42.653Z,11.27
2022-11-20T07:04:09.121Z,13.63
2022-11-20T07:06:35.608Z,14.57
2022-11-20T07:09:02.603Z,13.57
2022-11-20T07:11:29.267Z,14.13
2022-11-20T07:13:55.813Z,13.97
2022-11-20T07:16:22.660Z,16.20
2022-11-20T07:18:51.066Z,15.97
2022-11-20T07:21:18.160Z,14.60
2022-11-20T07:23:44.630Z,14.97
2022-11-20T07:26:12.231Z,14.30
2022-11-20T07:28:38.710Z,15.90
2022-11-20T07:31:07.575Z,15.17
2022-11-20T07:33:34.076Z,13.47
2022-11-20T07:36:01.188Z,16.13
2022-11-20T07:38:28.580Z,14.90
2022-11-20T07:40:58.810Z,13.67
2022-11-20T07:43:26.176Z,15.30
2022-11-20T07:45:52.945Z,15.07
2022-11-20T07:48:19.587Z,19.37
2022-11-20T07:50:46.650Z,14.97
2022-11-20T07:53:14.742Z,15.20
2022-11-20T07:55:41.250Z,14.77
2022-11-20T07:58:07.808Z,15.80
2022-11-20T08:00:34.408Z,15.10
2022-11-20T08:03:04.430Z,14.93
2022-11-20T08:05:31.045Z,14.50
2022-11-20T08:07:57.499Z,13.97
2022-11-20T08:10:24.284Z,15.17
2022-11-20T08:13:11.984Z,14.27
2022-11-20T08:15:39.945Z,17.50
2022-11-20T08:18:29.904Z,15.60
2022-11-20T08:20:55.601Z,15.43
2022-11-20T08:23:24.103Z,13.47
2022-11-20T08:25:52.000Z,15.83
2022-11-20T08:28:21.888Z,15.37
2022-11-20T08:30:49.233Z,14.47
2022-11-20T08:33:15.899Z,13.23
2022-11-20T08:35:43.478Z,15.43
2022-11-20T08:38:10.327Z,16.80
2022-11-20T08:40:36.816Z,14.33
2022-11-20T08:43:03.324Z,14.40
2022-11-20T08:45:34.149Z,17.47
2022-11-20T08:48:04.732Z,14.67
2022-11-20T08:50:34.993Z,15.60
2022-11-20T08:53:05.422Z,17.23
2022-11-20T08:55:32.040Z,14.03
2022-11-20T08:57:58.695Z,15.77
2022-11-20T09:00:25.435Z,18.20
2022-11-20T09:02:53.295Z,16.30
2022-11-20T09:05:19.777Z,15.03
2022-11-20T09:07:46.254Z,14.83
2022-11-20T09:10:28.396Z,14.47
2022-11-20T09:12:58.652Z,18.63
2022-11-20T09:15:26.327Z,18.00
2022-11-20T09:18:00.466Z,17.70
2022-11-20T09:20:30.137Z,16.90
2022-11-20T09:22:57.694Z,18.80
2022-11-20T09:25:24.825Z,16.23
2022-11-20T09:28:00.840Z,16.23
2022-11-20T09:30:29.013Z,14.43
2022-11-20T09:32:55.863Z,14.93
2022-11-20T09:35:22.691Z,15.13
2022-11-20T09:37:49.266Z,17.57
2022-11-20T09:40:30.368Z,15.70
2022-11-20T09:43:14.523Z,16.23
2022-11-20T09:46:06.132Z,16.50
2022-11-20T09:48:37.639Z,19.13
2022-11-20T09:51:14.682Z,18.17
2022-11-20T09:53:51.817Z,18.30
2022-11-20T09:56:22.810Z,21.10
2022-11-20T09:58:55.622Z,16.77
2022-11-20T10:01:27.243Z,16.83
2022-11-20T10:04:05.874Z,16.83
2022-11-20T10:06:33.937Z,18.60
2022-11-20T10:09:12.642Z,18.93
2022-11-20T10:11:57.671Z,16.83
2022-11-20T10:15:03.023Z,16.00
2022-11-20T10:17:41.594Z,15.30
2022-11-20T10:20:26.352Z,15.10
2022-11-20T10:23:25.744Z,15.03
2022-11-20T10:26:34.060Z,16.87
2022-11-20T10:29:14.936Z,14.53
2022-11-20T10:31:44.624Z,16.33
2022-11-20T10:34:39.853Z,16.87
2022-11-20T10:37:17.050Z,18.53
2022-11-20T10:39:55.420Z,20.80
2022-11-20T10:42:34.701Z,19.00
2022-11-20T10:45:22.471Z,15.23
2022-11-20T10:47:49.570Z,14.27
2022-11-20T10:50:22.950Z,17.30
2022-11-20T10:53:01.868Z,15.77
2022-11-20T10:55:59.638Z,14.67
2022-11-20T10:58:44.788Z,14.10
2022-11-20T11:01:23.213Z,15.07
2022-11-20T11:03:52.959Z,15.20
2022-11-20T11:06:25.729Z,14.97
2022-11-20T11:08:56.252Z,15.27
2022-11-20T11:11:24.763Z,13.77
2022-11-20T11:13:52.111Z,15.60
2022-11-20T11:16:28.361Z,16.43
2022-11-20T11:19:12.548Z,18.87
2022-11-20T11:21:44.378Z,15.50
2022-11-20T11:24:43.924Z,16.70
2022-11-20T11:27:18.027Z,19.30
2022-11-20T11:29:45.346Z,20.33
2022-11-20T11:32:23.138Z,18.30
2022-11-20T11:35:03.578Z,18.37
2022-11-20T11:37:39.479Z,14.93
2022-11-20T11:40:24.731Z,15.80
2022-11-20T11:43:00.709Z,16.77
2022-11-20T11:45:27.949Z,16.17
2022-11-20T11:47:59.017Z,19.83
2022-11-20T11:50:27.463Z,16.20
2022-11-20T11:53:16.614Z,19.90
2022-11-20T11:55:53.369Z,18.30
2022-11-20T11:58:56.412Z,18.90
2022-11-20T12:01:41.839Z,17.60
2022-11-20T12:04:17.759Z,17.53
2022-11-20T12:07:18.296Z,17.57
2022-11-20T12:09:53.431Z,18.20
2022-11-20T12:12:25.931Z,23.10
2022-11-20T12:14:55.625Z,17.67
2022-11-20T12:17:22.312Z,33.93
2022-11-20T12:19:48.896Z,32.57
2022-11-20T12:22:30.517Z,27.33
2022-11-20T12:25:14.008Z,20.43
2022-11-20T12:27:53.272Z,21.00
2022-11-20T12:30:22.171Z,20.67
2022-11-20T12:32:48.581Z,23.10
2022-11-20T12:35:36.582Z,22.23
2022-11-20T12:38:30.374Z,21.70
2022-11-20T12:40:56.865Z,22.00
2022-11-20T12:43:45.424Z,21.27
2022-11-20T12:46:12.193Z,19.80
2022-11-20T12:48:46.046Z,21.00
2022-11-20T12:51:31.217Z,22.37
2022-11-20T12:53:57.592Z,20.87
2022-11-20T12:56:45.515Z,18.40
2022-11-20T12:59:24.805Z,20.53
2022-11-20T13:02:19.616Z,19.70
2022-11-20T13:05:18.849Z,21.13
2022-11-20T13:07:46.763Z,18.90
2022-11-20T13:10:27.984Z,20.47
2022-11-20T13:13:02.592Z,19.00
2022-11-20T13:15:43.350Z,18.60
2022-11-20T13:18:12.253Z,19.37
2022-11-20T13:20:44.634Z,20.73
2022-11-20T13:23:11.477Z,19.03
2022-11-20T13:25:40.265Z,19.77
2022-11-20T13:28:09.851Z,20.50
2022-11-20T13:30:37.599Z,22.23
2022-11-20T13:33:06.852Z,25.03
2022-11-20T13:35:37.484Z,19.93
2022-11-20T13:38:10.435Z,18.67
2022-11-20T13:40:51.259Z,19.97
2022-11-20T13:43:22.364Z,20.37
2022-11-20T13:45:59.957Z,19.93
2022-11-20T13:48:42.364Z,23.03
2022-11-20T13:51:31.848Z,20.80
2022-11-20T13:54:06.536Z,22.97
2022-11-20T13:57:24.735Z,20.80
2022-11-20T13:59:54.188Z,22.07
2022-11-20T14:02:23.245Z,19.47
2022-11-20T14:04:53.742Z,21.47
2022-11-20T14:07:24.866Z,19.63
2022-11-20T14:09:56.573Z,22.63
2022-11-20T14:12:29.637Z,21.43
2022-11-20T14:14:56.533Z,67.57
2022-11-20T14:17:36.586Z,59.73
2022-11-20T14:20:07.312Z,35.43
2022-11-20T14:22:33.841Z,31.03
2022-11-20T14:25:20.041Z,29.80
2022-11-20T14:27:53.208Z,27.70
2022-11-20T14:30:23.687Z,26.67
2022-11-20T14:32:51.795Z,25.37
2022-11-20T14:35:29.994Z,24.73
2022-11-20T14:37:57.736Z,22.50
2022-11-20T14:40:24.839Z,21.40
2022-11-20T14:42:51.401Z,23.93
2022-11-20T14:45:19.221Z,22.47
2022-11-20T14:47:46.631Z,24.67
2022-11-20T14:50:25.239Z,23.37
2022-11-20T14:52:56.702Z,20.53
2022-11-20T14:55:38.201Z,22.90
2022-11-20T14:58:08.303Z,31.47
2022-11-20T15:00:36.001Z,29.80
2022-11-20T15:03:16.505Z,26.23
2022-11-20T15:05:49.759Z,20.00
2022-11-20T15:08:17.319Z,22.80
2022-11-20T15:10:51.511Z,23.67
2022-11-20T15:13:33.374Z,26.57
2022-11-20T15:16:02.558Z,34.83
2022-11-20T15:18:33.132Z,43.17
2022-11-20T15:21:04.659Z,41.40
2022-11-20T15:23:31.196Z,32.70
2022-11-20T15:25:57.785Z,28.57
2022-11-20T15:28:31.359Z,29.03
2022-11-20T15:30:58.096Z,24.03
2022-11-20T15:33:24.825Z,28.07
2022-11-20T15:35:51.431Z,28.50
2022-11-20T15:38:17.860Z,28.03
2022-11-20T15:40:44.386Z,28.43
2022-11-20T15:43:13.655Z,26.43
2022-11-20T15:45:53.880Z,29.53
2022-11-20T15:48:23.255Z,26.70
2022-11-20T15:51:08.367Z,24.43
2022-11-20T15:53:34.907Z,27.40
2022-11-20T15:56:02.633Z,26.23
2022-11-20T15:58:29.191Z,23.47
2022-11-20T16:00:56.067Z,25.17
2022-11-20T16:03:23.503Z,29.30
2022-11-20T16:05:50.133Z,26.63
2022-11-20T16:08:16.692Z,28.83
2022-11-20T16:10:43.196Z,30.10
2022-11-20T16:13:36.985Z,27.33
2022-11-20T16:16:24.103Z,27.50
2022-11-20T16:18:51.172Z,28.13
2022-11-20T16:21:18.049Z,29.67
2022-11-20T16:23:44.572Z,29.77
2022-11-20T16:26:17.663Z,32.77
2022-11-20T16:28:44.788Z,30.10
2022-11-20T16:31:37.009Z,31.83
2022-11-20T16:34:11.991Z,34.87
2022-11-20T16:36:43.376Z,34.03
2022-11-20T16:39:10.187Z,32.63
2022-11-20T16:41:37.300Z,33.83
2022-11-20T16:44:10.373Z,39.47
2022-11-20T16:46:37.818Z,71.37
2022-11-20T16:49:06.779Z,82.23
2022-11-20T16:51:36.320Z,75.00
2022-11-20T16:54:05.317Z,61.27
2022-11-20T16:56:31.921Z,56.90
2022-11-20T16:59:00.250Z,52.37
2022-11-20T17:01:29.950Z,45.50
2022-11-20T17:04:02.640Z,46.10
2022-11-20T17:06:32.173Z,50.63
2022-11-20T17:08:59.394Z,62.10
2022-11-20T17:11:27.730Z,59.37
2022-11-20T17:14:00.657Z,55.53
2022-11-20T17:16:28.136Z,55.20
2022-11-20T17:19:01.077Z,53.13
2022-11-20T17:21:32.392Z,46.83
2022-11-20T17:24:04.613Z,46.53
2022-11-20T17:26:32.023Z,37.90
2022-11-20T17:29:04.620Z,36.67
2022-11-20T17:31:33.316Z,37.80
2022-11-20T17:34:00.394Z,40.50
2022-11-20T17:36:28.430Z,39.93
2022-11-20T17:38:55.347Z,38.80
2022-11-20T17:41:23.479Z,34.10
2022-11-20T17:43:55.407Z,30.57
2022-11-20T17:46:24.951Z,31.40
2022-11-20T17:48:52.096Z,28.53
2022-11-20T17:51:22.734Z,31.37
2022-11-20T17:53:55.024Z,30.83
2022-11-20T17:56:40.575Z,31.30
2022-11-20T17:59:09.540Z,31.57
2022-11-20T18:01:36.497Z,33.17
2022-11-20T18:04:03.749Z,32.23
2022-11-20T18:06:31.217Z,34.43
2022-11-20T18:09:00.307Z,32.90
2022-11-20T18:11:30.422Z,36.37
2022-11-20T18:14:17.323Z,44.20
2022-11-20T18:16:52.205Z,42.73
2022-11-20T18:19:21.903Z,40.37
2022-11-20T18:21:48.476Z,41.80
2022-11-20T18:24:15.202Z,37.90
2022-11-20T18:26:44.488Z,38.10
2022-11-20T18:29:13.578Z,39.40
2022-11-20T18:31:41.050Z,40.57
2022-11-20T18:34:11.548Z,39.07
2022-11-20T18:36:38.820Z,39.17
2022-11-20T18:39:05.359Z,41.80
2022-11-20T18:41:50.528Z,38.77
2022-11-20T18:44:38.813Z,40.63
2022-11-20T18:47:13.953Z,35.70
2022-11-20T18:49:40.865Z,37.97
2022-11-20T18:52:08.376Z,33.50
2022-11-20T18:54:36.649Z,34.53
2022-11-20T18:57:04.112Z,35.03
2022-11-20T18:59:31.273Z,35.43
2022-11-20T19:01:58.209Z,38.63
2022-11-20T19:04:25.451Z,37.27
2022-11-20T19:06:56.102Z,36.67
2022-11-20T19:09:24.279Z,38.27
2022-11-20T19:11:52.094Z,39.70
2022-11-20T19:14:18.757Z,35.90
2022-11-20T19:16:45.388Z,38.93
2022-11-20T19:19:12.518Z,38.00
2022-11-20T19:21:39.100Z,37.73
2022-11-20T19:24:05.700Z,40.80
2022-11-20T19:26:34.953Z,39.10
2022-11-20T19:29:05.067Z,41.03
2022-11-20T19:31:32.011Z,37.90
2022-11-20T19:34:01.137Z,38.60
2022-11-20T19:36:44.383Z,39.23
2022-11-20T19:39:11.794Z,34.17
2022-11-20T19:41:40.163Z,35.47
2022-11-20T19:44:15.198Z,32.03
2022-11-20T19:46:42.008Z,31.70
2022-11-20T19:49:11.177Z,34.80
2022-11-20T19:51:43.411Z,29.83
2022-11-20T19:54:09.999Z,30.93
2022-11-20T19:56:36.687Z,28.70
2022-11-20T19:59:03.231Z,30.30
2022-11-20T20:01:31.651Z,24.60
2022-11-20T20:04:05.254Z,29.07
2022-11-20T20:06:34.092Z,25.93
2022-11-20T20:09:04.210Z,29.00
2022-11-20T20:11:32.843Z,27.47
2022-11-20T20:14:03.758Z,25.93
2022-11-20T20:16:30.644Z,26.67
2022-11-20T20:19:02.669Z,23.77
2022-11-20T20:21:31.905Z,28.13
2022-11-20T20:23:59.531Z,26.87
2022-11-20T20:26:28.709Z,26.20
2022-11-20T20:28:55.720Z,25.63
2022-11-20T20:31:25.286Z,23.70
2022-11-20T20:33:51.884Z,23.13
2022-11-20T20:36:20.041Z,23.53
2022-11-20T20:38:47.262Z,22.93
2022-11-20T20:41:14.770Z,23.50
2022-11-20T20:43:59.872Z,24.63
2022-11-20T20:46:26.375Z,24.87
2022-11-20T20:48:54.840Z,23.20
2022-11-20T20:51:22.765Z,20.83
2022-11-20T20:53:50.181Z,24.33
2022-11-20T20:56:17.531Z,22.53
2022-11-20T20:58:44.390Z,26.67
2022-11-20T21:01:15.744Z,24.70
2022-11-20T21:03:42.799Z,25.27
2022-11-20T21:06:10.838Z,23.67
2022-11-20T21:08:40.748Z,24.73
2022-11-20T21:11:10.597Z,22.63
2022-11-20T21:13:38.070Z,20.33
2022-11-20T21:16:04.843Z,20.20
2022-11-20T21:18:32.073Z,24.73
2022-11-20T21:21:17.354Z,22.67
2022-11-20T21:23:47.780Z,21.20
2022-11-20T21:26:16.043Z,20.23
2022-11-20T21:28:43.141Z,21.07
2022-11-20T21:31:15.327Z,21.80
2022-11-20T21:33:43.979Z,24.77
2022-11-20T21:36:13.034Z,21.80
2022-11-20T21:38:39.560Z,21.00
2022-11-20T21:41:08.376Z,20.57
2022-11-20T21:43:35.605Z,20.63
2022-11-20T21:46:09.804Z,23.10
2022-11-20T21:48:37.983Z,22.27
2022-11-20T21:51:09.534Z,24.30
2022-11-20T21:53:36.470Z,23.23
2022-11-20T21:56:04.326Z,24.63
2022-11-20T21:58:31.251Z,23.93
2022-11-20T22:00:57.979Z,22.17
2022-11-20T22:03:25.130Z,22.90
2022-11-20T22:05:56.593Z,23.30
2022-11-20T22:08:26.801Z,24.40
2022-11-20T22:11:12.294Z,25.77
2022-11-20T22:13:58.132Z,23.40
2022-11-20T22:16:25.292Z,23.73
2022-11-20T22:18:54.095Z,23.30
2022-11-20T22:21:24.021Z,23.90
2022-11-20T22:23:51.033Z,22.63
2022-11-20T22:26:19.743Z,23.43
2022-11-20T22:28:50.637Z,25.67
2022-11-20T22:31:18.629Z,23.23
2022-11-20T22:33:45.470Z,23.13
2022-11-20T22:36:14.190Z,21.83
2022-11-20T22:38:40.781Z,21.03
2022-11-20T22:41:28.225Z,22.47
2022-11-20T22:43:56.621Z,27.07
2022-11-20T22:46:24.396Z,24.17
2022-11-20T22:48:52.136Z,21.53
2022-11-20T22:51:20.704Z,25.00
2022-11-20T22:53:47.677Z,24.77
2022-11-20T22:56:15.269Z,25.53
2022-11-20T22:58:44.414Z,21.77
2022-11-20T23:01:15.285Z,23.23
2022-11-20T23:03:46.437Z,25.53
2022-11-20T23:06:13.547Z,21.23
2022-11-20T23:08:41.570Z,24.50
2022-11-20T23:11:11.817Z,25.57
2022-11-20T23:13:38.815Z,22.93
2022-11-20T23:16:11.594Z,22.70
2022-11-20T23:18:38.266Z,24.93
2022-11-20T23:21:06.555Z,22.93
2022-11-20T23:23:33.603Z,23.13
2022-11-20T23:26:08.891Z,23.50
2022-11-20T23:28:35.596Z,24.63
2022-11-20T23:31:02.650Z,23.33
2022-11-20T23:33:29.956Z,22.77
2022-11-20T23:35:56.608Z,23.70
2022-11-20T23:38:23.317Z,23.30
2022-11-20T23:40:51.585Z,24.13
2022-11-20T23:43:20.463Z,25.27
2022-11-20T23:45:52.211Z,24.43
2022-11-20T23:48:19.852Z,24.17
2022-11-20T23:50:46.641Z,24.83
2022-11-20T23:53:14.460Z,22.80
2022-11-20T23:55:46.163Z,21.30
2022-11-20T23:58:13.568Z,21.10
